sensor_id;sensor_type;location;lat;lon;timestamp;P1;durP1;ratioP1;P2;durP2;ratioP2
19107;SDS011;9686;48.832;9.126;2023-12-22T00:00:38;0.40;;;0.40;;
19107;SDS011;9686;48.832;9.126;2023-12-22T00:03:03;0.90;;;0.90;;
19107;SDS011;9686;48.832;9.126;2023-12-22T00:05:28;3.03;;;1.07;;
19107;SDS011;9686;48.832;9.126;2023-12-22T00:07:54;1.03;;;0.80;;
19107;SDS011;9686;48.832;9.126;2023-12-22T00:10:20;0.80;;;0.73;;
19107;SDS011;9686;48.832;9.126;2023-12-22T00:12:45;0.93;;;0.93;;
19107;SDS011;9686;48.832;9.126;2023-12-22T00:15:11;0.87;;;0.87;;
19107;SDS011;9686;48.832;9.126;2023-12-22T00:17:36;3.63;;;0.80;;
19107;SDS011;9686;48.832;9.126;2023-12-22T00:20:01;3.93;;;1.63;;
19107;SDS011;9686;48.832;9.126;2023-12-22T00:22:28;1.17;;;1.07;;
19107;SDS011;9686;48.832;9.126;2023-12-22T00:24:53;9.43;;;1.40;;
19107;SDS011;9686;48.832;9.126;2023-12-22T00:27:19;2.50;;;1.57;;
19107;SDS011;9686;48.832;9.126;2023-12-22T00:29:44;4.50;;;2.13;;
19107;SDS011;9686;48.832;9.126;2023-12-22T00:32:09;2.00;;;0.97;;
19107;SDS011;9686;48.832;9.126;2023-12-22T00:34:35;2.20;;;1.00;;
19107;SDS011;9686;48.832;9.126;2023-12-22T00:37:00;1.50;;;1.00;;
19107;SDS011;9686;48.832;9.126;2023-12-22T00:39:26;1.23;;;0.70;;
19107;SDS011;9686;48.832;9.126;2023-12-22T00:41:51;1.30;;;0.90;;
19107;SDS011;9686;48.832;9.126;2023-12-22T00:44:17;1.40;;;0.40;;
19107;SDS011;9686;48.832;9.126;2023-12-22T00:46:42;7.80;;;0.83;;
19107;SDS011;9686;48.832;9.126;2023-12-22T00:49:07;0.70;;;0.70;;
19107;SDS011;9686;48.832;9.126;2023-12-22T00:51:33;1.70;;;1.13;;
19107;SDS011;9686;48.832;9.126;2023-12-22T00:53:58;0.80;;;0.80;;
19107;SDS011;9686;48.832;9.126;2023-12-22T00:56:23;2.53;;;1.67;;
19107;SDS011;9686;48.832;9.126;2023-12-22T00:58:48;2.20;;;1.30;;
19107;SDS011;9686;48.832;9.126;2023-12-22T01:01:14;3.57;;;1.37;;
19107;SDS011;9686;48.832;9.126;2023-12-22T01:03:39;4.90;;;1.20;;
19107;SDS011;9686;48.832;9.126;2023-12-22T01:06:04;2.07;;;0.90;;
19107;SDS011;9686;48.832;9.126;2023-12-22T01:08:30;2.07;;;1.03;;
19107;SDS011;9686;48.832;9.126;2023-12-22T01:10:55;6.90;;;0.93;;
19107;SDS011;9686;48.832;9.126;2023-12-22T01:13:20;6.47;;;1.80;;
19107;SDS011;9686;48.832;9.126;2023-12-22T01:15:46;2.00;;;1.00;;
19107;SDS011;9686;48.832;9.126;2023-12-22T01:18:11;3.33;;;1.07;;
19107;SDS011;9686;48.832;9.126;2023-12-22T01:20:36;8.90;;;1.67;;
19107;SDS011;9686;48.832;9.126;2023-12-22T01:23:02;6.90;;;0.90;;
19107;SDS011;9686;48.832;9.126;2023-12-22T01:25:27;0.50;;;0.50;;
19107;SDS011;9686;48.832;9.126;2023-12-22T01:27:52;5.63;;;1.53;;
19107;SDS011;9686;48.832;9.126;2023-12-22T01:30:18;2.53;;;1.27;;
19107;SDS011;9686;48.832;9.126;2023-12-22T01:32:43;0.47;;;0.47;;
19107;SDS011;9686;48.832;9.126;2023-12-22T01:35:09;0.70;;;0.70;;
19107;SDS011;9686;48.832;9.126;2023-12-22T01:37:37;2.83;;;1.03;;
19107;SDS011;9686;48.832;9.126;2023-12-22T01:40:03;0.60;;;0.60;;
19107;SDS011;9686;48.832;9.126;2023-12-22T01:42:29;8.40;;;2.53;;
19107;SDS011;9686;48.832;9.126;2023-12-22T01:44:55;1.67;;;0.90;;
19107;SDS011;9686;48.832;9.126;2023-12-22T01:47:20;1.47;;;1.03;;
19107;SDS011;9686;48.832;9.126;2023-12-22T01:49:46;4.70;;;0.70;;
19107;SDS011;9686;48.832;9.126;2023-12-22T01:52:12;1.90;;;0.60;;
19107;SDS011;9686;48.832;9.126;2023-12-22T01:54:37;0.37;;;0.37;;
19107;SDS011;9686;48.832;9.126;2023-12-22T01:57:04;2.87;;;0.97;;
19107;SDS011;9686;48.832;9.126;2023-12-22T01:59:30;7.50;;;1.13;;
19107;SDS011;9686;48.832;9.126;2023-12-22T02:01:59;0.47;;;0.47;;
19107;SDS011;9686;48.832;9.126;2023-12-22T02:04:27;2.57;;;0.70;;
19107;SDS011;9686;48.832;9.126;2023-12-22T02:06:55;0.43;;;0.33;;
19107;SDS011;9686;48.832;9.126;2023-12-22T02:09:23;0.50;;;0.50;;
19107;SDS011;9686;48.832;9.126;2023-12-22T02:11:49;1.97;;;0.83;;
19107;SDS011;9686;48.832;9.126;2023-12-22T02:14:14;0.50;;;0.50;;
19107;SDS011;9686;48.832;9.126;2023-12-22T02:16:44;3.13;;;0.73;;
19107;SDS011;9686;48.832;9.126;2023-12-22T02:22:04;0.80;;;0.80;;
19107;SDS011;9686;48.832;9.126;2023-12-22T02:24:31;9.83;;;0.90;;
19107;SDS011;9686;48.832;9.126;2023-12-22T02:26:58;0.80;;;0.80;;
19107;SDS011;9686;48.832;9.126;2023-12-22T02:29:31;0.60;;;0.60;;
19107;SDS011;9686;48.832;9.126;2023-12-22T02:31:59;1.30;;;0.83;;
19107;SDS011;9686;48.832;9.126;2023-12-22T02:34:30;0.50;;;0.50;;
19107;SDS011;9686;48.832;9.126;2023-12-22T02:37:00;0.40;;;0.40;;
19107;SDS011;9686;48.832;9.126;2023-12-22T02:39:28;2.63;;;0.83;;
19107;SDS011;9686;48.832;9.126;2023-12-22T02:41:53;1.47;;;0.93;;
19107;SDS011;9686;48.832;9.126;2023-12-22T02:44:19;3.97;;;0.60;;
19107;SDS011;9686;48.832;9.126;2023-12-22T02:46:45;0.43;;;0.43;;
19107;SDS011;9686;48.832;9.126;2023-12-22T02:49:11;1.03;;;0.47;;
19107;SDS011;9686;48.832;9.126;2023-12-22T02:51:38;2.00;;;0.77;;
19107;SDS011;9686;48.832;9.126;2023-12-22T02:54:03;1.60;;;1.33;;
19107;SDS011;9686;48.832;9.126;2023-12-22T02:56:28;0.70;;;0.70;;
19107;SDS011;9686;48.832;9.126;2023-12-22T02:58:54;2.10;;;0.70;;
19107;SDS011;9686;48.832;9.126;2023-12-22T03:01:19;2.57;;;0.87;;
19107;SDS011;9686;48.832;9.126;2023-12-22T03:03:44;4.83;;;0.93;;
19107;SDS011;9686;48.832;9.126;2023-12-22T03:06:09;1.90;;;0.80;;
19107;SDS011;9686;48.832;9.126;2023-12-22T03:08:35;0.50;;;0.50;;
19107;SDS011;9686;48.832;9.126;2023-12-22T03:11:00;3.93;;;1.20;;
19107;SDS011;9686;48.832;9.126;2023-12-22T03:13:25;3.63;;;1.20;;
19107;SDS011;9686;48.832;9.126;2023-12-22T03:15:51;0.70;;;0.70;;
19107;SDS011;9686;48.832;9.126;2023-12-22T03:18:16;0.87;;;0.63;;
19107;SDS011;9686;48.832;9.126;2023-12-22T03:20:41;5.50;;;1.57;;
19107;SDS011;9686;48.832;9.126;2023-12-22T03:23:06;4.93;;;0.67;;
19107;SDS011;9686;48.832;9.126;2023-12-22T03:25:32;0.57;;;0.57;;
19107;SDS011;9686;48.832;9.126;2023-12-22T03:27:57;0.77;;;0.67;;
19107;SDS011;9686;48.832;9.126;2023-12-22T03:30:22;0.60;;;0.60;;
19107;SDS011;9686;48.832;9.126;2023-12-22T03:32:48;6.93;;;1.07;;
19107;SDS011;9686;48.832;9.126;2023-12-22T03:35:13;1.43;;;0.60;;
19107;SDS011;9686;48.832;9.126;2023-12-22T03:37:38;1.27;;;1.07;;
19107;SDS011;9686;48.832;9.126;2023-12-22T03:40:04;0.97;;;0.67;;
19107;SDS011;9686;48.832;9.126;2023-12-22T03:42:29;1.40;;;0.60;;
19107;SDS011;9686;48.832;9.126;2023-12-22T03:44:55;0.67;;;0.60;;
19107;SDS011;9686;48.832;9.126;2023-12-22T03:47:20;1.90;;;0.67;;
19107;SDS011;9686;48.832;9.126;2023-12-22T03:49:45;2.50;;;1.53;;
19107;SDS011;9686;48.832;9.126;2023-12-22T03:52:10;2.10;;;0.97;;
19107;SDS011;9686;48.832;9.126;2023-12-22T03:54:36;1.23;;;0.77;;
19107;SDS011;9686;48.832;9.126;2023-12-22T03:57:01;0.67;;;0.67;;
19107;SDS011;9686;48.832;9.126;2023-12-22T03:59:26;5.37;;;1.03;;
19107;SDS011;9686;48.832;9.126;2023-12-22T04:01:52;3.07;;;0.83;;
19107;SDS011;9686;48.832;9.126;2023-12-22T04:04:18;1.80;;;0.80;;
19107;SDS011;9686;48.832;9.126;2023-12-22T04:06:43;0.57;;;0.57;;
19107;SDS011;9686;48.832;9.126;2023-12-22T04:09:08;1.60;;;1.50;;
19107;SDS011;9686;48.832;9.126;2023-12-22T04:11:34;1.53;;;0.73;;
19107;SDS011;9686;48.832;9.126;2023-12-22T04:14:01;0.60;;;0.60;;
19107;SDS011;9686;48.832;9.126;2023-12-22T04:16:26;0.60;;;0.60;;
19107;SDS011;9686;48.832;9.126;2023-12-22T04:18:52;1.67;;;1.00;;
19107;SDS011;9686;48.832;9.126;2023-12-22T04:21:17;2.03;;;1.37;;
19107;SDS011;9686;48.832;9.126;2023-12-22T04:23:42;1.77;;;0.80;;
19107;SDS011;9686;48.832;9.126;2023-12-22T04:26:07;5.03;;;0.90;;
19107;SDS011;9686;48.832;9.126;2023-12-22T04:28:33;3.30;;;0.97;;
19107;SDS011;9686;48.832;9.126;2023-12-22T04:30:58;1.40;;;1.00;;
19107;SDS011;9686;48.832;9.126;2023-12-22T04:33:23;3.17;;;0.83;;
19107;SDS011;9686;48.832;9.126;2023-12-22T04:35:49;1.77;;;1.20;;
19107;SDS011;9686;48.832;9.126;2023-12-22T04:38:14;3.13;;;0.80;;
19107;SDS011;9686;48.832;9.126;2023-12-22T04:40:39;0.47;;;0.47;;
19107;SDS011;9686;48.832;9.126;2023-12-22T04:43:05;0.70;;;0.70;;
19107;SDS011;9686;48.832;9.126;2023-12-22T04:45:30;0.87;;;0.50;;
19107;SDS011;9686;48.832;9.126;2023-12-22T04:47:55;3.20;;;1.17;;
19107;SDS011;9686;48.832;9.126;2023-12-22T04:50:22;0.50;;;0.50;;
19107;SDS011;9686;48.832;9.126;2023-12-22T04:52:47;1.03;;;0.60;;
19107;SDS011;9686;48.832;9.126;2023-12-22T04:55:12;0.40;;;0.40;;
19107;SDS011;9686;48.832;9.126;2023-12-22T04:57:38;2.90;;;0.90;;
19107;SDS011;9686;48.832;9.126;2023-12-22T05:00:03;0.50;;;0.50;;
19107;SDS011;9686;48.832;9.126;2023-12-22T05:02:29;1.80;;;1.07;;
19107;SDS011;9686;48.832;9.126;2023-12-22T05:04:54;0.70;;;0.70;;
19107;SDS011;9686;48.832;9.126;2023-12-22T05:07:19;2.33;;;1.07;;
19107;SDS011;9686;48.832;9.126;2023-12-22T05:09:45;1.00;;;0.90;;
19107;SDS011;9686;48.832;9.126;2023-12-22T05:12:10;1.57;;;0.97;;
19107;SDS011;9686;48.832;9.126;2023-12-22T05:14:36;6.43;;;1.23;;
19107;SDS011;9686;48.832;9.126;2023-12-22T05:17:01;2.80;;;1.20;;
19107;SDS011;9686;48.832;9.126;2023-12-22T05:19:26;2.77;;;1.27;;
19107;SDS011;9686;48.832;9.126;2023-12-22T05:21:52;2.30;;;1.17;;
19107;SDS011;9686;48.832;9.126;2023-12-22T05:24:20;0.90;;;0.70;;
19107;SDS011;9686;48.832;9.126;2023-12-22T05:26:46;3.40;;;1.60;;
19107;SDS011;9686;48.832;9.126;2023-12-22T05:29:11;5.70;;;2.07;;
19107;SDS011;9686;48.832;9.126;2023-12-22T05:31:38;3.57;;;1.23;;
19107;SDS011;9686;48.832;9.126;2023-12-22T05:34:03;0.90;;;0.90;;
19107;SDS011;9686;48.832;9.126;2023-12-22T05:36:28;3.70;;;1.33;;
19107;SDS011;9686;48.832;9.126;2023-12-22T05:38:54;1.97;;;1.10;;
19107;SDS011;9686;48.832;9.126;2023-12-22T05:41:19;5.60;;;1.70;;
19107;SDS011;9686;48.832;9.126;2023-12-22T05:43:45;5.20;;;1.43;;
19107;SDS011;9686;48.832;9.126;2023-12-22T05:46:10;3.80;;;1.97;;
19107;SDS011;9686;48.832;9.126;2023-12-22T05:48:36;4.63;;;1.73;;
19107;SDS011;9686;48.832;9.126;2023-12-22T05:51:01;2.43;;;1.10;;
19107;SDS011;9686;48.832;9.126;2023-12-22T05:53:32;4.93;;;1.40;;
19107;SDS011;9686;48.832;9.126;2023-12-22T05:55:58;5.83;;;1.50;;
19107;SDS011;9686;48.832;9.126;2023-12-22T05:58:23;10.17;;;1.40;;
19107;SDS011;9686;48.832;9.126;2023-12-22T06:00:48;7.97;;;1.47;;
19107;SDS011;9686;48.832;9.126;2023-12-22T06:03:14;5.17;;;1.70;;
19107;SDS011;9686;48.832;9.126;2023-12-22T06:05:39;6.33;;;2.07;;
19107;SDS011;9686;48.832;9.126;2023-12-22T06:08:04;1.13;;;0.80;;
19107;SDS011;9686;48.832;9.126;2023-12-22T06:10:30;1.43;;;0.70;;
19107;SDS011;9686;48.832;9.126;2023-12-22T06:12:55;1.67;;;1.00;;
19107;SDS011;9686;48.832;9.126;2023-12-22T06:15:22;2.00;;;1.27;;
19107;SDS011;9686;48.832;9.126;2023-12-22T06:17:48;8.90;;;1.83;;
19107;SDS011;9686;48.832;9.126;2023-12-22T06:20:13;4.00;;;1.03;;
19107;SDS011;9686;48.832;9.126;2023-12-22T06:22:38;0.97;;;0.87;;
19107;SDS011;9686;48.832;9.126;2023-12-22T06:25:04;5.87;;;1.63;;
19107;SDS011;9686;48.832;9.126;2023-12-22T06:27:32;0.67;;;0.67;;
19107;SDS011;9686;48.832;9.126;2023-12-22T06:30:02;3.00;;;0.90;;
19107;SDS011;9686;48.832;9.126;2023-12-22T06:32:28;3.03;;;1.30;;
19107;SDS011;9686;48.832;9.126;2023-12-22T06:34:53;2.57;;;0.80;;
19107;SDS011;9686;48.832;9.126;2023-12-22T06:37:19;2.73;;;1.07;;
19107;SDS011;9686;48.832;9.126;2023-12-22T06:39:44;7.77;;;1.23;;
19107;SDS011;9686;48.832;9.126;2023-12-22T06:42:09;2.57;;;1.57;;
19107;SDS011;9686;48.832;9.126;2023-12-22T06:44:37;4.13;;;1.07;;
19107;SDS011;9686;48.832;9.126;2023-12-22T06:47:03;2.40;;;1.37;;
19107;SDS011;9686;48.832;9.126;2023-12-22T06:49:28;1.93;;;0.97;;
19107;SDS011;9686;48.832;9.126;2023-12-22T06:51:53;9.50;;;1.30;;
19107;SDS011;9686;48.832;9.126;2023-12-22T06:54:19;1.70;;;1.20;;
19107;SDS011;9686;48.832;9.126;2023-12-22T06:56:44;2.73;;;1.47;;
19107;SDS011;9686;48.832;9.126;2023-12-22T06:59:09;6.73;;;1.83;;
19107;SDS011;9686;48.832;9.126;2023-12-22T07:01:37;4.47;;;1.30;;
19107;SDS011;9686;48.832;9.126;2023-12-22T07:04:02;5.63;;;1.10;;
19107;SDS011;9686;48.832;9.126;2023-12-22T07:06:29;3.23;;;1.20;;
19107;SDS011;9686;48.832;9.126;2023-12-22T07:08:56;1.40;;;0.57;;
19107;SDS011;9686;48.832;9.126;2023-12-22T07:11:34;6.93;;;1.60;;
19107;SDS011;9686;48.832;9.126;2023-12-22T07:13:59;3.90;;;1.77;;
19107;SDS011;9686;48.832;9.126;2023-12-22T07:16:24;1.37;;;1.07;;
19107;SDS011;9686;48.832;9.126;2023-12-22T07:18:50;1.10;;;0.80;;
19107;SDS011;9686;48.832;9.126;2023-12-22T07:21:16;8.73;;;1.77;;
19107;SDS011;9686;48.832;9.126;2023-12-22T07:23:42;2.60;;;1.23;;
19107;SDS011;9686;48.832;9.126;2023-12-22T07:26:09;1.57;;;1.37;;
19107;SDS011;9686;48.832;9.126;2023-12-22T07:28:34;3.13;;;1.40;;
19107;SDS011;9686;48.832;9.126;2023-12-22T07:31:00;2.10;;;0.63;;
19107;SDS011;9686;48.832;9.126;2023-12-22T07:33:25;0.70;;;0.70;;
19107;SDS011;9686;48.832;9.126;2023-12-22T07:35:50;4.80;;;1.70;;
19107;SDS011;9686;48.832;9.126;2023-12-22T07:38:15;2.07;;;0.97;;
19107;SDS011;9686;48.832;9.126;2023-12-22T07:40:41;8.57;;;1.97;;
19107;SDS011;9686;48.832;9.126;2023-12-22T07:43:06;2.40;;;1.07;;
19107;SDS011;9686;48.832;9.126;2023-12-22T07:45:31;2.60;;;1.37;;
19107;SDS011;9686;48.832;9.126;2023-12-22T07:47:57;0.40;;;0.40;;
19107;SDS011;9686;48.832;9.126;2023-12-22T07:50:22;0.77;;;0.77;;
19107;SDS011;9686;48.832;9.126;2023-12-22T07:52:47;0.70;;;0.70;;
19107;SDS011;9686;48.832;9.126;2023-12-22T07:55:12;0.40;;;0.40;;
19107;SDS011;9686;48.832;9.126;2023-12-22T07:57:38;2.07;;;0.60;;
19107;SDS011;9686;48.832;9.126;2023-12-22T08:00:06;0.97;;;0.70;;
19107;SDS011;9686;48.832;9.126;2023-12-22T08:02:34;4.23;;;1.40;;
19107;SDS011;9686;48.832;9.126;2023-12-22T08:04:59;1.07;;;0.60;;
19107;SDS011;9686;48.832;9.126;2023-12-22T08:07:24;2.13;;;1.17;;
19107;SDS011;9686;48.832;9.126;2023-12-22T08:09:51;1.07;;;0.97;;
19107;SDS011;9686;48.832;9.126;2023-12-22T08:12:16;3.43;;;1.27;;
19107;SDS011;9686;48.832;9.126;2023-12-22T08:14:42;0.93;;;0.90;;
19107;SDS011;9686;48.832;9.126;2023-12-22T08:17:07;1.27;;;1.10;;
19107;SDS011;9686;48.832;9.126;2023-12-22T08:19:32;1.70;;;1.03;;
19107;SDS011;9686;48.832;9.126;2023-12-22T08:21:57;8.13;;;1.00;;
19107;SDS011;9686;48.832;9.126;2023-12-22T08:24:23;6.70;;;1.77;;
19107;SDS011;9686;48.832;9.126;2023-12-22T08:26:49;7.17;;;1.57;;
19107;SDS011;9686;48.832;9.126;2023-12-22T08:29:15;0.97;;;0.87;;
19107;SDS011;9686;48.832;9.126;2023-12-22T08:31:44;5.03;;;1.53;;
19107;SDS011;9686;48.832;9.126;2023-12-22T08:34:09;1.87;;;1.50;;
19107;SDS011;9686;48.832;9.126;2023-12-22T08:36:35;2.33;;;1.87;;
19107;SDS011;9686;48.832;9.126;2023-12-22T08:39:01;3.57;;;1.63;;
19107;SDS011;9686;48.832;9.126;2023-12-22T08:41:26;8.30;;;1.30;;
19107;SDS011;9686;48.832;9.126;2023-12-22T08:43:52;5.70;;;2.40;;
19107;SDS011;9686;48.832;9.126;2023-12-22T08:46:17;1.63;;;1.53;;
19107;SDS011;9686;48.832;9.126;2023-12-22T08:48:43;2.47;;;1.80;;
19107;SDS011;9686;48.832;9.126;2023-12-22T08:51:08;5.47;;;1.87;;
19107;SDS011;9686;48.832;9.126;2023-12-22T08:53:34;4.73;;;1.93;;
19107;SDS011;9686;48.832;9.126;2023-12-22T08:56:02;0.80;;;0.80;;
19107;SDS011;9686;48.832;9.126;2023-12-22T08:58:28;6.80;;;1.97;;
19107;SDS011;9686;48.832;9.126;2023-12-22T09:00:54;3.57;;;2.27;;
19107;SDS011;9686;48.832;9.126;2023-12-22T09:03:19;3.17;;;1.60;;
19107;SDS011;9686;48.832;9.126;2023-12-22T09:05:44;7.90;;;1.47;;
19107;SDS011;9686;48.832;9.126;2023-12-22T09:08:10;4.03;;;1.50;;
19107;SDS011;9686;48.832;9.126;2023-12-22T09:10:35;8.27;;;1.77;;
19107;SDS011;9686;48.832;9.126;2023-12-22T09:13:00;2.83;;;1.63;;
19107;SDS011;9686;48.832;9.126;2023-12-22T09:15:26;6.37;;;1.40;;
19107;SDS011;9686;48.832;9.126;2023-12-22T09:17:51;3.60;;;2.00;;
19107;SDS011;9686;48.832;9.126;2023-12-22T09:20:18;3.40;;;1.90;;
19107;SDS011;9686;48.832;9.126;2023-12-22T09:22:43;2.37;;;1.60;;
19107;SDS011;9686;48.832;9.126;2023-12-22T09:25:08;2.70;;;1.50;;
19107;SDS011;9686;48.832;9.126;2023-12-22T09:27:34;6.27;;;1.40;;
19107;SDS011;9686;48.832;9.126;2023-12-22T09:29:59;3.57;;;1.63;;
19107;SDS011;9686;48.832;9.126;2023-12-22T09:32:25;5.80;;;1.57;;
19107;SDS011;9686;48.832;9.126;2023-12-22T09:34:51;5.97;;;1.97;;
19107;SDS011;9686;48.832;9.126;2023-12-22T09:37:17;8.33;;;1.20;;
19107;SDS011;9686;48.832;9.126;2023-12-22T09:39:42;3.90;;;2.30;;
19107;SDS011;9686;48.832;9.126;2023-12-22T09:42:07;3.53;;;1.10;;
19107;SDS011;9686;48.832;9.126;2023-12-22T09:44:33;7.10;;;0.70;;
19107;SDS011;9686;48.832;9.126;2023-12-22T09:46:59;5.90;;;1.83;;
19107;SDS011;9686;48.832;9.126;2023-12-22T09:49:25;6.43;;;1.97;;
19107;SDS011;9686;48.832;9.126;2023-12-22T09:51:51;1.33;;;1.23;;
19107;SDS011;9686;48.832;9.126;2023-12-22T09:54:18;2.67;;;1.70;;
19107;SDS011;9686;48.832;9.126;2023-12-22T09:56:44;0.97;;;0.90;;
19107;SDS011;9686;48.832;9.126;2023-12-22T09:59:11;5.50;;;1.90;;
19107;SDS011;9686;48.832;9.126;2023-12-22T10:01:43;3.93;;;2.03;;
19107;SDS011;9686;48.832;9.126;2023-12-22T10:04:10;6.67;;;1.97;;
19107;SDS011;9686;48.832;9.126;2023-12-22T10:06:36;3.37;;;2.13;;
19107;SDS011;9686;48.832;9.126;2023-12-22T10:09:02;3.87;;;2.13;;
19107;SDS011;9686;48.832;9.126;2023-12-22T10:11:30;6.00;;;2.10;;
19107;SDS011;9686;48.832;9.126;2023-12-22T10:13:57;3.40;;;1.63;;
19107;SDS011;9686;48.832;9.126;2023-12-22T10:16:24;1.37;;;1.23;;
19107;SDS011;9686;48.832;9.126;2023-12-22T10:18:50;5.47;;;1.80;;
19107;SDS011;9686;48.832;9.126;2023-12-22T10:21:16;3.93;;;2.10;;
19107;SDS011;9686;48.832;9.126;2023-12-22T10:23:42;8.53;;;2.23;;
19107;SDS011;9686;48.832;9.126;2023-12-22T10:26:07;10.10;;;2.03;;
19107;SDS011;9686;48.832;9.126;2023-12-22T10:28:36;3.83;;;1.40;;
19107;SDS011;9686;48.832;9.126;2023-12-22T10:31:01;8.40;;;2.17;;
19107;SDS011;9686;48.832;9.126;2023-12-22T10:33:31;2.10;;;1.33;;
19107;SDS011;9686;48.832;9.126;2023-12-22T10:35:56;5.13;;;1.80;;
19107;SDS011;9686;48.832;9.126;2023-12-22T10:38:23;9.83;;;1.60;;
19107;SDS011;9686;48.832;9.126;2023-12-22T10:40:49;3.27;;;1.70;;
19107;SDS011;9686;48.832;9.126;2023-12-22T10:43:14;2.03;;;1.70;;
19107;SDS011;9686;48.832;9.126;2023-12-22T10:45:40;4.43;;;1.67;;
19107;SDS011;9686;48.832;9.126;2023-12-22T10:48:06;4.13;;;1.67;;
19107;SDS011;9686;48.832;9.126;2023-12-22T10:50:32;4.93;;;2.10;;
19107;SDS011;9686;48.832;9.126;2023-12-22T10:52:57;3.27;;;1.10;;
19107;SDS011;9686;48.832;9.126;2023-12-22T10:55:22;1.33;;;1.23;;
19107;SDS011;9686;48.832;9.126;2023-12-22T10:57:48;1.77;;;0.87;;
19107;SDS011;9686;48.832;9.126;2023-12-22T11:00:16;8.87;;;1.50;;
19107;SDS011;9686;48.832;9.126;2023-12-22T11:02:46;3.30;;;0.77;;
19107;SDS011;9686;48.832;9.126;2023-12-22T11:05:13;1.23;;;0.80;;
19107;SDS011;9686;48.832;9.126;2023-12-22T11:07:41;5.17;;;1.00;;
19107;SDS011;9686;48.832;9.126;2023-12-22T11:10:12;2.73;;;1.47;;
19107;SDS011;9686;48.832;9.126;2023-12-22T11:12:42;1.17;;;0.53;;
19107;SDS011;9686;48.832;9.126;2023-12-22T11:15:09;4.83;;;1.27;;
19107;SDS011;9686;48.832;9.126;2023-12-22T11:17:39;2.50;;;0.80;;
19107;SDS011;9686;48.832;9.126;2023-12-22T11:20:10;0.67;;;0.63;;
19107;SDS011;9686;48.832;9.126;2023-12-22T11:22:38;2.37;;;0.83;;
19107;SDS011;9686;48.832;9.126;2023-12-22T11:25:03;2.80;;;0.87;;
19107;SDS011;9686;48.832;9.126;2023-12-22T11:27:30;2.70;;;1.07;;
19107;SDS011;9686;48.832;9.126;2023-12-22T11:29:58;14.00;;;1.13;;
19107;SDS011;9686;48.832;9.126;2023-12-22T11:32:25;2.07;;;1.40;;
19107;SDS011;9686;48.832;9.126;2023-12-22T11:34:53;1.70;;;0.80;;
19107;SDS011;9686;48.832;9.126;2023-12-22T11:37:21;2.33;;;0.80;;
19107;SDS011;9686;48.832;9.126;2023-12-22T11:39:47;4.50;;;1.07;;
19107;SDS011;9686;48.832;9.126;2023-12-22T11:42:19;1.83;;;1.20;;
19107;SDS011;9686;48.832;9.126;2023-12-22T11:44:49;1.60;;;1.03;;
19107;SDS011;9686;48.832;9.126;2023-12-22T11:47:15;2.93;;;0.67;;
19107;SDS011;9686;48.832;9.126;2023-12-22T11:49:40;0.53;;;0.53;;
19107;SDS011;9686;48.832;9.126;2023-12-22T11:52:12;3.50;;;0.83;;
19107;SDS011;9686;48.832;9.126;2023-12-22T11:54:45;1.33;;;0.80;;
19107;SDS011;9686;48.832;9.126;2023-12-22T11:59:53;3.70;;;0.80;;
19107;SDS011;9686;48.832;9.126;2023-12-22T12:02:21;0.60;;;0.60;;
19107;SDS011;9686;48.832;9.126;2023-12-22T12:04:53;2.47;;;1.03;;
19107;SDS011;9686;48.832;9.126;2023-12-22T12:07:37;6.20;;;0.60;;
19107;SDS011;9686;48.832;9.126;2023-12-22T12:10:13;0.30;;;0.30;;
19107;SDS011;9686;48.832;9.126;2023-12-22T12:13:05;0.40;;;0.40;;
19107;SDS011;9686;48.832;9.126;2023-12-22T12:15:31;4.43;;;0.70;;
19107;SDS011;9686;48.832;9.126;2023-12-22T12:17:58;0.63;;;0.63;;
19107;SDS011;9686;48.832;9.126;2023-12-22T12:20:24;0.50;;;0.50;;
19107;SDS011;9686;48.832;9.126;2023-12-22T12:22:49;4.37;;;0.60;;
19107;SDS011;9686;48.832;9.126;2023-12-22T12:25:14;0.30;;;0.30;;
19107;SDS011;9686;48.832;9.126;2023-12-22T12:27:41;0.63;;;0.63;;
19107;SDS011;9686;48.832;9.126;2023-12-22T12:30:13;2.63;;;0.50;;
19107;SDS011;9686;48.832;9.126;2023-12-22T12:32:42;1.13;;;0.90;;
19107;SDS011;9686;48.832;9.126;2023-12-22T12:35:11;0.80;;;0.60;;
19107;SDS011;9686;48.832;9.126;2023-12-22T12:37:37;2.73;;;1.07;;
19107;SDS011;9686;48.832;9.126;2023-12-22T12:40:03;0.40;;;0.40;;
19107;SDS011;9686;48.832;9.126;2023-12-22T12:42:33;0.60;;;0.43;;
19107;SDS011;9686;48.832;9.126;2023-12-22T12:45:02;0.23;;;0.23;;
19107;SDS011;9686;48.832;9.126;2023-12-22T12:47:29;0.40;;;0.40;;
19107;SDS011;9686;48.832;9.126;2023-12-22T12:50:00;3.00;;;1.03;;
19107;SDS011;9686;48.832;9.126;2023-12-22T12:52:26;0.30;;;0.30;;
19107;SDS011;9686;48.832;9.126;2023-12-22T12:54:52;0.50;;;0.50;;
19107;SDS011;9686;48.832;9.126;2023-12-22T12:57:18;0.40;;;0.40;;
19107;SDS011;9686;48.832;9.126;2023-12-22T12:59:45;0.57;;;0.30;;
19107;SDS011;9686;48.832;9.126;2023-12-22T13:02:12;0.97;;;0.63;;
19107;SDS011;9686;48.832;9.126;2023-12-22T13:04:37;0.20;;;0.20;;
19107;SDS011;9686;48.832;9.126;2023-12-22T13:07:03;0.40;;;0.40;;
19107;SDS011;9686;48.832;9.126;2023-12-22T13:09:31;1.37;;;0.77;;
19107;SDS011;9686;48.832;9.126;2023-12-22T13:11:58;0.87;;;0.60;;
19107;SDS011;9686;48.832;9.126;2023-12-22T13:14:23;0.10;;;0.10;;
19107;SDS011;9686;48.832;9.126;2023-12-22T13:16:50;0.20;;;0.20;;
19107;SDS011;9686;48.832;9.126;2023-12-22T13:19:16;0.27;;;0.27;;
19107;SDS011;9686;48.832;9.126;2023-12-22T13:21:41;0.20;;;0.20;;
19107;SDS011;9686;48.832;9.126;2023-12-22T13:24:16;0.10;;;0.10;;
19107;SDS011;9686;48.832;9.126;2023-12-22T13:26:43;0.30;;;0.30;;
19107;SDS011;9686;48.832;9.126;2023-12-22T13:29:09;0.20;;;0.20;;
19107;SDS011;9686;48.832;9.126;2023-12-22T13:31:39;0.50;;;0.40;;
19107;SDS011;9686;48.832;9.126;2023-12-22T13:34:12;0.40;;;0.40;;
19107;SDS011;9686;48.832;9.126;2023-12-22T13:36:38;0.20;;;0.20;;
19107;SDS011;9686;48.832;9.126;2023-12-22T13:39:05;0.20;;;0.20;;
19107;SDS011;9686;48.832;9.126;2023-12-22T13:41:34;0.17;;;0.17;;
19107;SDS011;9686;48.832;9.126;2023-12-22T13:44:03;0.10;;;0.10;;
19107;SDS011;9686;48.832;9.126;2023-12-22T13:46:32;0.47;;;0.37;;
19107;SDS011;9686;48.832;9.126;2023-12-22T13:49:00;0.10;;;0.10;;
19107;SDS011;9686;48.832;9.126;2023-12-22T13:51:26;0.20;;;0.20;;
19107;SDS011;9686;48.832;9.126;2023-12-22T13:53:52;0.20;;;0.20;;
19107;SDS011;9686;48.832;9.126;2023-12-22T13:56:17;0.30;;;0.30;;
19107;SDS011;9686;48.832;9.126;2023-12-22T13:58:46;0.47;;;0.47;;
19107;SDS011;9686;48.832;9.126;2023-12-22T14:01:15;0.23;;;0.23;;
19107;SDS011;9686;48.832;9.126;2023-12-22T14:03:42;0.20;;;0.20;;
19107;SDS011;9686;48.832;9.126;2023-12-22T14:06:08;0.67;;;0.43;;
19107;SDS011;9686;48.832;9.126;2023-12-22T14:08:34;0.77;;;0.50;;
19107;SDS011;9686;48.832;9.126;2023-12-22T14:11:01;0.23;;;0.23;;
19107;SDS011;9686;48.832;9.126;2023-12-22T14:13:26;0.20;;;0.20;;
19107;SDS011;9686;48.832;9.126;2023-12-22T14:15:52;0.20;;;0.20;;
19107;SDS011;9686;48.832;9.126;2023-12-22T14:18:17;0.30;;;0.30;;
19107;SDS011;9686;48.832;9.126;2023-12-22T14:20:43;0.30;;;0.30;;
19107;SDS011;9686;48.832;9.126;2023-12-22T14:23:09;0.20;;;0.20;;
19107;SDS011;9686;48.832;9.126;2023-12-22T14:25:36;0.20;;;0.20;;
19107;SDS011;9686;48.832;9.126;2023-12-22T14:28:02;0.30;;;0.30;;
19107;SDS011;9686;48.832;9.126;2023-12-22T14:30:27;0.13;;;0.13;;
19107;SDS011;9686;48.832;9.126;2023-12-22T14:32:53;1.33;;;0.40;;
19107;SDS011;9686;48.832;9.126;2023-12-22T14:35:19;0.30;;;0.30;;
19107;SDS011;9686;48.832;9.126;2023-12-22T14:37:44;0.50;;;0.27;;
19107;SDS011;9686;48.832;9.126;2023-12-22T14:40:11;0.30;;;0.30;;
19107;SDS011;9686;48.832;9.126;2023-12-22T14:42:36;0.40;;;0.40;;
19107;SDS011;9686;48.832;9.126;2023-12-22T14:45:02;0.37;;;0.37;;
19107;SDS011;9686;48.832;9.126;2023-12-22T14:47:27;0.30;;;0.30;;
19107;SDS011;9686;48.832;9.126;2023-12-22T14:49:52;0.20;;;0.20;;
19107;SDS011;9686;48.832;9.126;2023-12-22T14:52:18;0.40;;;0.40;;
19107;SDS011;9686;48.832;9.126;2023-12-22T14:54:45;0.30;;;0.30;;
19107;SDS011;9686;48.832;9.126;2023-12-22T14:57:10;0.20;;;0.20;;
19107;SDS011;9686;48.832;9.126;2023-12-22T14:59:36;0.57;;;0.40;;